KLM23Z EHAM-ENAL
Flight info
| Callsign | KLM23Z |
|---|---|
| Flight time | 1h 48m |
| Altitude | 34000 |
| Route | BERGI L602 SUPUR P1 GODOS DCT ROKAN DCT LARGA/N0446F350 DCT PENUN DCT INTUM/N0455F340 DCT TUMIM |
| Aircraft | A321/M-SDE3FGHIRWY/LB1 |
Departure
| Time | 2026-05-06 13:35 |
|---|---|
| Airport | Amsterdam Airport Schiphol (EHAM) |
Arrival
| Time | 2026-05-06 15:24 |
|---|---|
| Airport | Ålesund Airport (ENAL) |
| Time | Latitude | Longitude | Altitude | Speed | Heading |
|---|---|---|---|---|---|
| 2026-05-06 13:17 | 52.30895 | 4.77238 | -1 ft | 0 kts | 3° |
| 2026-05-06 13:27 | 52.30894 | 4.77238 | -1 ft | 1 kts | 3° |
| 2026-05-06 13:27 | 52.30871 | 4.77239 | -159 ft | 4 kts | 353° |
| 2026-05-06 13:27 | 52.30851 | 4.77240 | -1 ft | 3 kts | 55° |
| 2026-05-06 13:28 | 52.30841 | 4.77208 | -1 ft | 3 kts | 75° |
| 2026-05-06 13:28 | 52.30841 | 4.77203 | -1 ft | 0 kts | 74° |
| 2026-05-06 13:30 | 52.30843 | 4.77266 | -1 ft | 15 kts | 94° |
| 2026-05-06 13:30 | 52.30833 | 4.77512 | -1 ft | 21 kts | 92° |
| 2026-05-06 13:30 | 52.30927 | 4.77612 | -1 ft | 24 kts | 4° |
| 2026-05-06 13:31 | 52.31153 | 4.77633 | -1 ft | 41 kts | 3° |
| 2026-05-06 13:31 | 52.31453 | 4.77637 | -1 ft | 35 kts | 343° |
| 2026-05-06 13:31 | 52.31574 | 4.77351 | -1 ft | 35 kts | 280° |
| 2026-05-06 13:31 | 52.31557 | 4.76890 | -1 ft | 47 kts | 267° |
| 2026-05-06 13:32 | 52.31539 | 4.76316 | -1 ft | 51 kts | 266° |
| 2026-05-06 13:32 | 52.31521 | 4.75750 | -1 ft | 49 kts | 266° |
| 2026-05-06 13:32 | 52.31502 | 4.75216 | -1 ft | 47 kts | 267° |
| 2026-05-06 13:32 | 52.31485 | 4.74686 | -1 ft | 46 kts | 266° |
| 2026-05-06 13:33 | 52.31468 | 4.74261 | -1 ft | 30 kts | 259° |
| 2026-05-06 13:33 | 52.31304 | 4.74132 | -1 ft | 33 kts | 183° |
| 2026-05-06 13:33 | 52.31026 | 4.74103 | -1 ft | 44 kts | 184° |
| 2026-05-06 13:33 | 52.30730 | 4.74078 | -1 ft | 40 kts | 181° |
| 2026-05-06 13:34 | 52.30470 | 4.74058 | -1 ft | 33 kts | 183° |
| 2026-05-06 13:34 | 52.30258 | 4.73962 | -1 ft | 29 kts | 207° |
| 2026-05-06 13:34 | 52.30223 | 4.73753 | -3 ft | 21 kts | 340° |
| 2026-05-06 13:34 | 52.30413 | 4.73757 | -3 ft | 47 kts | 2° |
| 2026-05-06 13:35 | 52.30966 | 4.73804 | -1 ft | 109 kts | 3° |
| 2026-05-06 13:35 | 52.31897 | 4.73890 | -1 ft | 156 kts | 3° |
| 2026-05-06 13:35 | 52.33094 | 4.74001 | 145 ft | 181 kts | 2° |
| 2026-05-06 13:35 | 52.34341 | 4.73870 | 683 ft | 182 kts | 338° |
| 2026-05-06 13:36 | 52.35453 | 4.72800 | 1044 ft | 188 kts | 326° |
| 2026-05-06 13:36 | 52.36497 | 4.71463 | 1325 ft | 202 kts | 313° |
| 2026-05-06 13:36 | 52.37520 | 4.69746 | 1437 ft | 226 kts | 314° |
| 2026-05-06 13:36 | 52.38685 | 4.67807 | 1661 ft | 250 kts | 314° |
| 2026-05-06 13:37 | 52.39941 | 4.65726 | 2254 ft | 260 kts | 314° |
| 2026-05-06 13:37 | 52.41220 | 4.63607 | 3015 ft | 264 kts | 314° |
| 2026-05-06 13:37 | 52.42515 | 4.61459 | 3747 ft | 268 kts | 314° |
| 2026-05-06 13:37 | 52.43837 | 4.59271 | 4477 ft | 271 kts | 314° |
| 2026-05-06 13:38 | 52.45172 | 4.57061 | 5181 ft | 274 kts | 314° |
| 2026-05-06 13:38 | 52.46522 | 4.54825 | 5853 ft | 278 kts | 314° |
| 2026-05-06 13:38 | 52.47885 | 4.52558 | 6499 ft | 281 kts | 314° |
| 2026-05-06 13:38 | 52.49262 | 4.50259 | 7121 ft | 284 kts | 314° |
| 2026-05-06 13:39 | 52.50657 | 4.47933 | 7724 ft | 287 kts | 314° |
| 2026-05-06 13:39 | 52.52066 | 4.45584 | 8309 ft | 290 kts | 314° |
| 2026-05-06 13:39 | 52.53487 | 4.43217 | 8873 ft | 293 kts | 314° |
| 2026-05-06 13:39 | 52.54923 | 4.40820 | 9415 ft | 296 kts | 314° |
| 2026-05-06 13:40 | 52.56372 | 4.38395 | 9940 ft | 298 kts | 314° |
| 2026-05-06 13:40 | 52.57839 | 4.35937 | 10308 ft | 307 kts | 314° |
| 2026-05-06 13:40 | 52.59355 | 4.33391 | 10429 ft | 323 kts | 314° |
| 2026-05-06 13:40 | 52.60986 | 4.30652 | 10559 ft | 339 kts | 314° |
| 2026-05-06 13:41 | 52.62647 | 4.27862 | 10685 ft | 353 kts | 314° |
| 2026-05-06 13:41 | 52.64391 | 4.24937 | 10953 ft | 361 kts | 314° |
| 2026-05-06 13:41 | 52.66157 | 4.21974 | 11363 ft | 365 kts | 314° |
| 2026-05-06 13:41 | 52.67940 | 4.18973 | 11783 ft | 368 kts | 314° |
| 2026-05-06 13:42 | 52.69734 | 4.15939 | 12195 ft | 370 kts | 314° |
| 2026-05-06 13:42 | 52.71541 | 4.12882 | 12599 ft | 373 kts | 314° |
| 2026-05-06 13:42 | 52.73361 | 4.09807 | 12996 ft | 375 kts | 314° |
| 2026-05-06 13:42 | 52.75191 | 4.06709 | 13381 ft | 378 kts | 314° |
| 2026-05-06 13:43 | 52.77030 | 4.03589 | 13758 ft | 380 kts | 314° |
| 2026-05-06 13:43 | 52.78880 | 4.00445 | 14124 ft | 383 kts | 314° |
| 2026-05-06 13:43 | 52.80741 | 3.97279 | 14476 ft | 385 kts | 314° |
| 2026-05-06 13:43 | 52.82611 | 3.94093 | 14814 ft | 387 kts | 314° |
| 2026-05-06 13:44 | 52.84502 | 3.90874 | 15141 ft | 390 kts | 314° |
| 2026-05-06 13:44 | 52.86372 | 3.87688 | 15451 ft | 392 kts | 314° |
| 2026-05-06 13:44 | 52.88277 | 3.84435 | 15758 ft | 394 kts | 314° |
| 2026-05-06 13:44 | 52.90189 | 3.81159 | 16055 ft | 396 kts | 314° |
| 2026-05-06 13:45 | 52.92108 | 3.77869 | 16337 ft | 398 kts | 313° |
| 2026-05-06 13:45 | 52.95971 | 3.71228 | 16866 ft | 401 kts | 313° |
| 2026-05-06 13:45 | 52.97752 | 3.67664 | 17104 ft | 403 kts | 303° |
| 2026-05-06 13:46 | 52.99163 | 3.63657 | 17334 ft | 404 kts | 300° |
| 2026-05-06 13:46 | 53.00803 | 3.59850 | 17549 ft | 406 kts | 311° |
| 2026-05-06 13:46 | 53.02896 | 3.56692 | 17763 ft | 408 kts | 324° |
| 2026-05-06 13:46 | 53.05361 | 3.54325 | 17968 ft | 410 kts | 336° |
| 2026-05-06 13:47 | 53.08007 | 3.52722 | 18161 ft | 412 kts | 341° |
| 2026-05-06 13:47 | 53.10728 | 3.51171 | 18357 ft | 413 kts | 341° |
| 2026-05-06 13:47 | 53.13453 | 3.49611 | 18545 ft | 415 kts | 340° |
| 2026-05-06 13:47 | 53.16183 | 3.48041 | 18726 ft | 416 kts | 340° |
| 2026-05-06 13:48 | 53.18920 | 3.46459 | 18898 ft | 417 kts | 340° |
| 2026-05-06 13:48 | 53.21633 | 3.44721 | 19053 ft | 418 kts | 333° |
| 2026-05-06 13:48 | 53.24118 | 3.42194 | 19207 ft | 419 kts | 322° |
| 2026-05-06 13:48 | 53.26258 | 3.38899 | 19354 ft | 419 kts | 311° |
| 2026-05-06 13:49 | 53.27988 | 3.34983 | 19490 ft | 420 kts | 302° |
| 2026-05-06 13:49 | 53.29569 | 3.30875 | 19616 ft | 421 kts | 302° |
| 2026-05-06 13:49 | 53.31159 | 3.26740 | 19742 ft | 423 kts | 302° |
| 2026-05-06 13:49 | 53.32749 | 3.22594 | 19868 ft | 424 kts | 302° |
| 2026-05-06 13:50 | 53.34343 | 3.18436 | 19993 ft | 425 kts | 302° |
| 2026-05-06 13:50 | 53.35934 | 3.14266 | 20118 ft | 426 kts | 302° |
| 2026-05-06 13:50 | 53.37527 | 3.10085 | 20244 ft | 427 kts | 302° |
| 2026-05-06 13:50 | 53.39127 | 3.05895 | 20369 ft | 427 kts | 302° |
| 2026-05-06 13:51 | 53.40728 | 3.01697 | 20494 ft | 428 kts | 302° |
| 2026-05-06 13:51 | 53.42332 | 2.97489 | 20619 ft | 428 kts | 302° |
| 2026-05-06 13:51 | 53.44087 | 2.93454 | 20733 ft | 429 kts | 313° |
| 2026-05-06 13:51 | 53.46361 | 2.90317 | 20857 ft | 430 kts | 329° |
| 2026-05-06 13:52 | 53.49099 | 2.88353 | 20981 ft | 430 kts | 346° |
| 2026-05-06 13:52 | 53.52067 | 2.87790 | 21107 ft | 430 kts | 2° |
| 2026-05-06 13:52 | 53.55006 | 2.88679 | 21232 ft | 430 kts | 19° |
| 2026-05-06 13:52 | 53.57702 | 2.90835 | 21361 ft | 430 kts | 29° |
| 2026-05-06 13:53 | 53.60316 | 2.93285 | 21486 ft | 430 kts | 29° |
| 2026-05-06 13:53 | 53.62932 | 2.95738 | 21611 ft | 430 kts | 29° |
| 2026-05-06 13:53 | 53.65544 | 2.98185 | 21735 ft | 430 kts | 29° |
| 2026-05-06 13:53 | 53.68155 | 3.00631 | 21860 ft | 430 kts | 29° |
| 2026-05-06 13:54 | 53.70775 | 3.03081 | 21985 ft | 430 kts | 29° |
| 2026-05-06 13:54 | 53.73355 | 3.05499 | 22108 ft | 430 kts | 29° |
| 2026-05-06 13:54 | 53.75964 | 3.07953 | 22232 ft | 429 kts | 29° |
| 2026-05-06 13:54 | 53.78572 | 3.10414 | 22357 ft | 429 kts | 29° |
| 2026-05-06 13:55 | 53.81178 | 3.12875 | 22481 ft | 429 kts | 29° |
| 2026-05-06 13:55 | 53.83776 | 3.15335 | 22606 ft | 428 kts | 29° |
| 2026-05-06 13:55 | 53.86381 | 3.17809 | 22731 ft | 428 kts | 29° |
| 2026-05-06 13:55 | 53.88976 | 3.20280 | 22855 ft | 427 kts | 29° |
| 2026-05-06 13:56 | 53.91571 | 3.22750 | 22980 ft | 427 kts | 29° |
| 2026-05-06 13:56 | 53.94158 | 3.25212 | 23104 ft | 426 kts | 29° |
| 2026-05-06 13:56 | 53.96749 | 3.27677 | 23229 ft | 425 kts | 29° |
| 2026-05-06 13:56 | 53.99300 | 3.30112 | 23353 ft | 425 kts | 29° |
| 2026-05-06 13:57 | 54.01872 | 3.32570 | 23478 ft | 424 kts | 29° |
| 2026-05-06 13:57 | 54.04438 | 3.35024 | 23602 ft | 423 kts | 29° |
| 2026-05-06 13:57 | 54.07007 | 3.37482 | 23727 ft | 423 kts | 29° |
| 2026-05-06 13:57 | 54.09570 | 3.39938 | 23852 ft | 422 kts | 29° |
| 2026-05-06 13:58 | 54.12128 | 3.42396 | 23978 ft | 421 kts | 29° |
| 2026-05-06 13:58 | 54.14677 | 3.44846 | 24102 ft | 420 kts | 29° |
| 2026-05-06 13:58 | 54.17218 | 3.47294 | 24227 ft | 419 kts | 29° |
| 2026-05-06 13:58 | 54.19749 | 3.49736 | 24352 ft | 418 kts | 29° |
| 2026-05-06 13:59 | 54.22284 | 3.52190 | 24477 ft | 417 kts | 29° |
| 2026-05-06 13:59 | 54.24802 | 3.54630 | 24602 ft | 416 kts | 29° |
| 2026-05-06 13:59 | 54.27288 | 3.57042 | 24725 ft | 415 kts | 29° |
| 2026-05-06 13:59 | 54.29793 | 3.59480 | 24850 ft | 414 kts | 29° |
| 2026-05-06 14:00 | 54.32299 | 3.61917 | 24975 ft | 413 kts | 29° |
| 2026-05-06 14:00 | 54.34797 | 3.64345 | 25100 ft | 412 kts | 29° |
| 2026-05-06 14:00 | 54.37287 | 3.66763 | 25225 ft | 411 kts | 29° |
| 2026-05-06 14:00 | 54.39774 | 3.69184 | 25350 ft | 410 kts | 30° |
| 2026-05-06 14:01 | 54.42255 | 3.71606 | 25475 ft | 409 kts | 30° |
| 2026-05-06 14:01 | 54.44721 | 3.74019 | 25600 ft | 408 kts | 30° |
| 2026-05-06 14:01 | 54.47184 | 3.76436 | 25725 ft | 407 kts | 30° |
| 2026-05-06 14:01 | 54.49637 | 3.78848 | 25849 ft | 406 kts | 30° |
| 2026-05-06 14:02 | 54.52059 | 3.81234 | 25973 ft | 404 kts | 30° |
| 2026-05-06 14:02 | 54.54499 | 3.83637 | 26098 ft | 403 kts | 30° |
| 2026-05-06 14:02 | 54.56931 | 3.86038 | 26223 ft | 402 kts | 30° |
| 2026-05-06 14:02 | 54.59358 | 3.88437 | 26347 ft | 401 kts | 30° |
| 2026-05-06 14:03 | 54.61781 | 3.90829 | 26472 ft | 400 kts | 30° |
| 2026-05-06 14:03 | 54.64197 | 3.93217 | 26597 ft | 399 kts | 30° |
| 2026-05-06 14:03 | 54.66606 | 3.95605 | 26722 ft | 398 kts | 30° |
| 2026-05-06 14:03 | 54.69003 | 3.97991 | 26846 ft | 397 kts | 30° |
| 2026-05-06 14:04 | 54.71398 | 4.00377 | 26971 ft | 396 kts | 30° |
| 2026-05-06 14:04 | 54.73782 | 4.02746 | 27096 ft | 395 kts | 30° |
| 2026-05-06 14:04 | 54.76166 | 4.05115 | 27221 ft | 394 kts | 30° |
| 2026-05-06 14:04 | 54.78509 | 4.07449 | 27344 ft | 393 kts | 30° |
| 2026-05-06 14:05 | 54.80885 | 4.09818 | 27469 ft | 392 kts | 30° |
| 2026-05-06 14:05 | 54.83247 | 4.12170 | 27594 ft | 390 kts | 28° |
| 2026-05-06 14:05 | 54.85692 | 4.14196 | 27719 ft | 389 kts | 21° |
| 2026-05-06 14:05 | 54.88251 | 4.15694 | 27843 ft | 387 kts | 14° |
| 2026-05-06 14:06 | 54.90886 | 4.16642 | 27968 ft | 386 kts | 9° |
| 2026-05-06 14:06 | 54.93531 | 4.17389 | 28092 ft | 384 kts | 9° |
| 2026-05-06 14:06 | 54.96169 | 4.18141 | 28217 ft | 383 kts | 9° |
| 2026-05-06 14:06 | 54.98792 | 4.18896 | 28341 ft | 381 kts | 9° |
| 2026-05-06 14:07 | 55.01406 | 4.19654 | 28465 ft | 380 kts | 9° |
| 2026-05-06 14:07 | 55.04012 | 4.20411 | 28590 ft | 378 kts | 9° |
| 2026-05-06 14:07 | 55.06602 | 4.21160 | 28714 ft | 377 kts | 9° |
| 2026-05-06 14:07 | 55.09185 | 4.21905 | 28839 ft | 375 kts | 9° |
| 2026-05-06 14:08 | 55.11752 | 4.22649 | 28963 ft | 373 kts | 9° |
| 2026-05-06 14:08 | 55.14299 | 4.23389 | 29087 ft | 371 kts | 9° |
| 2026-05-06 14:08 | 55.16842 | 4.24132 | 29212 ft | 369 kts | 9° |
| 2026-05-06 14:08 | 55.19366 | 4.24866 | 29336 ft | 366 kts | 9° |
| 2026-05-06 14:09 | 55.21866 | 4.25594 | 29459 ft | 363 kts | 9° |
| 2026-05-06 14:09 | 55.24355 | 4.26322 | 29584 ft | 361 kts | 9° |
| 2026-05-06 14:09 | 55.26821 | 4.27046 | 29707 ft | 358 kts | 9° |
| 2026-05-06 14:09 | 55.29234 | 4.27755 | 29829 ft | 355 kts | 9° |
| 2026-05-06 14:10 | 55.31657 | 4.28468 | 29953 ft | 351 kts | 9° |
| 2026-05-06 14:10 | 55.34067 | 4.29175 | 30077 ft | 349 kts | 9° |
| 2026-05-06 14:10 | 55.36456 | 4.29873 | 30192 ft | 347 kts | 9° |
| 2026-05-06 14:10 | 55.38855 | 4.30573 | 30016 ft | 354 kts | 9° |
| 2026-05-06 14:11 | 55.41290 | 4.30362 | 29768 ft | 356 kts | 333° |
| 2026-05-06 14:11 | 55.43379 | 4.27948 | 29443 ft | 361 kts | 332° |
| 2026-05-06 14:11 | 55.44897 | 4.26822 | 29641 ft | 354 kts | 347° |
| 2026-05-06 14:11 | 55.47306 | 4.26585 | 29735 ft | 352 kts | 12° |
| 2026-05-06 14:12 | 55.49592 | 4.28118 | 29729 ft | 350 kts | 33° |
| 2026-05-06 14:12 | 55.51560 | 4.30617 | 29578 ft | 349 kts | 36° |
| 2026-05-06 14:12 | 55.53066 | 4.34288 | 27201 ft | 409 kts | 64° |
| 2026-05-06 14:12 | 55.54616 | 4.38568 | 26786 ft | 406 kts | 46° |
| 2026-05-06 14:13 | 55.56826 | 4.41515 | 26601 ft | 400 kts | 23° |
| 2026-05-06 14:13 | 55.59521 | 4.42648 | 26599 ft | 402 kts | 359° |
| 2026-05-06 14:13 | 55.62305 | 4.42114 | 26601 ft | 404 kts | 351° |
| 2026-05-06 14:13 | 55.65094 | 4.41330 | 26597 ft | 408 kts | 351° |
| 2026-05-06 14:14 | 55.67914 | 4.40535 | 26602 ft | 410 kts | 351° |
| 2026-05-06 14:14 | 55.70732 | 4.40157 | 26595 ft | 413 kts | 4° |
| 2026-05-06 14:14 | 55.73583 | 4.40864 | 26607 ft | 415 kts | 9° |
| 2026-05-06 14:14 | 55.76444 | 4.41731 | 26600 ft | 418 kts | 9° |
| 2026-05-06 14:15 | 55.79313 | 4.42611 | 26601 ft | 420 kts | 9° |
| 2026-05-06 14:15 | 55.82205 | 4.43500 | 26601 ft | 422 kts | 9° |
| 2026-05-06 14:15 | 55.85106 | 4.44385 | 26601 ft | 424 kts | 9° |
| 2026-05-06 14:15 | 55.88026 | 4.45266 | 26601 ft | 426 kts | 9° |
| 2026-05-06 14:16 | 55.90954 | 4.46146 | 26601 ft | 427 kts | 9° |
| 2026-05-06 14:16 | 55.93909 | 4.47033 | 26611 ft | 435 kts | 9° |
| 2026-05-06 14:16 | 55.96929 | 4.47937 | 26730 ft | 443 kts | 9° |
| 2026-05-06 14:16 | 55.99990 | 4.48860 | 26872 ft | 450 kts | 9° |
| 2026-05-06 14:17 | 56.03096 | 4.49804 | 26998 ft | 454 kts | 10° |
| 2026-05-06 14:17 | 56.06222 | 4.50762 | 27198 ft | 456 kts | 11° |
| 2026-05-06 14:17 | 56.09323 | 4.51714 | 27519 ft | 457 kts | 12° |
| 2026-05-06 14:17 | 56.12453 | 4.52668 | 27980 ft | 456 kts | 12° |
| 2026-05-06 14:18 | 56.15575 | 4.53622 | 28388 ft | 455 kts | 12° |
| 2026-05-06 14:18 | 56.18707 | 4.54575 | 28633 ft | 456 kts | 11° |
| 2026-05-06 14:18 | 56.21618 | 4.56575 | 28966 ft | 448 kts | 30° |
| 2026-05-06 14:18 | 56.24548 | 4.58572 | 29039 ft | 455 kts | 22° |
| 2026-05-06 14:19 | 56.30717 | 4.61484 | 29607 ft | 453 kts | 18° |
| 2026-05-06 14:19 | 56.33800 | 4.62744 | 29395 ft | 463 kts | 16° |
| 2026-05-06 14:19 | 56.37031 | 4.63842 | 28804 ft | 467 kts | 15° |
| 2026-05-06 14:20 | 56.40051 | 4.64739 | 30597 ft | 420 kts | 14° |
| 2026-05-06 14:20 | 56.42830 | 4.65410 | 32175 ft | 387 kts | 13° |
| 2026-05-06 14:20 | 56.45438 | 4.65941 | 32813 ft | 382 kts | 13° |
| 2026-05-06 14:20 | 56.48159 | 4.66538 | 31687 ft | 407 kts | 13° |
| 2026-05-06 14:21 | 56.51140 | 4.67265 | 29244 ft | 458 kts | 11° |
| 2026-05-06 14:21 | 56.54391 | 4.68132 | 27325 ft | 486 kts | 12° |
| 2026-05-06 14:21 | 56.57748 | 4.69066 | 26791 ft | 487 kts | 12° |
| 2026-05-06 14:21 | 56.61117 | 4.70009 | 26760 ft | 484 kts | 10° |
| 2026-05-06 14:22 | 56.64400 | 4.70710 | 27366 ft | 470 kts | 7° |
| 2026-05-06 14:22 | 56.67640 | 4.71129 | 27974 ft | 464 kts | 5° |
| 2026-05-06 14:22 | 56.70839 | 4.71272 | 28594 ft | 457 kts | 2° |
| 2026-05-06 14:22 | 56.73993 | 4.71143 | 29240 ft | 448 kts | 360° |
| 2026-05-06 14:23 | 56.77067 | 4.70841 | 29961 ft | 438 kts | 0° |
| 2026-05-06 14:23 | 56.80076 | 4.70721 | 30645 ft | 428 kts | 3° |
| 2026-05-06 14:23 | 56.83027 | 4.70832 | 31273 ft | 419 kts | 6° |
| 2026-05-06 14:23 | 56.85861 | 4.71184 | 31836 ft | 405 kts | 9° |
| 2026-05-06 14:24 | 56.88567 | 4.71614 | 32247 ft | 377 kts | 9° |
| 2026-05-06 14:24 | 56.91041 | 4.72581 | 32461 ft | 354 kts | 20° |
| 2026-05-06 14:24 | 56.91147 | 4.72634 | 32449 ft | 354 kts | 20° |
| 2026-05-06 14:25 | 56.94291 | 4.74288 | 32050 ft | 365 kts | 20° |
| 2026-05-06 14:25 | 56.96949 | 4.75618 | 30250 ft | 424 kts | 17° |
| 2026-05-06 14:25 | 56.99987 | 4.76905 | 28673 ft | 471 kts | 14° |
| 2026-05-06 14:26 | 57.03341 | 4.78127 | 27277 ft | 509 kts | 13° |
| 2026-05-06 14:26 | 57.06688 | 4.79330 | 28714 ft | 472 kts | 14° |
| 2026-05-06 14:26 | 57.09818 | 4.80524 | 30073 ft | 448 kts | 15° |
| 2026-05-06 14:26 | 57.12788 | 4.81739 | 31259 ft | 425 kts | 16° |
| 2026-05-06 14:27 | 57.15670 | 4.82858 | 31668 ft | 425 kts | 14° |
| 2026-05-06 14:27 | 57.18610 | 4.83946 | 31599 ft | 434 kts | 15° |
| 2026-05-06 14:27 | 57.24555 | 4.86439 | 31538 ft | 438 kts | 13° |
| 2026-05-06 14:28 | 57.27535 | 4.87625 | 31093 ft | 438 kts | 8° |
| 2026-05-06 14:28 | 57.30564 | 4.88439 | 31029 ft | 441 kts | 7° |
| 2026-05-06 14:28 | 57.33603 | 4.89180 | 31377 ft | 441 kts | 7° |
| 2026-05-06 14:28 | 57.36670 | 4.89893 | 31497 ft | 446 kts | 7° |
| 2026-05-06 14:29 | 57.39768 | 4.90602 | 31624 ft | 451 kts | 7° |
| 2026-05-06 14:29 | 57.42861 | 4.91309 | 31751 ft | 456 kts | 7° |
| 2026-05-06 14:29 | 57.46023 | 4.92043 | 31899 ft | 459 kts | 7° |
| 2026-05-06 14:29 | 57.47362 | 4.92357 | 31990 ft | 460 kts | 8° |
| 2026-05-06 14:30 | 57.48614 | 4.92654 | 32156 ft | 457 kts | 7° |
| 2026-05-06 14:30 | 57.49824 | 4.92939 | 32311 ft | 454 kts | 9° |
| 2026-05-06 14:30 | 57.52945 | 4.93684 | 32706 ft | 452 kts | 9° |
| 2026-05-06 14:30 | 57.56056 | 4.94436 | 33030 ft | 450 kts | 9° |
| 2026-05-06 14:31 | 57.59163 | 4.95184 | 33328 ft | 449 kts | 9° |
| 2026-05-06 14:31 | 57.62254 | 4.95929 | 33608 ft | 449 kts | 9° |
| 2026-05-06 14:31 | 57.65334 | 4.96672 | 33827 ft | 450 kts | 7° |
| 2026-05-06 14:31 | 57.68449 | 4.97420 | 33953 ft | 453 kts | 7° |
| 2026-05-06 14:32 | 57.71540 | 4.98159 | 34081 ft | 456 kts | 7° |
| 2026-05-06 14:32 | 57.74651 | 4.98907 | 34267 ft | 457 kts | 7° |
| 2026-05-06 14:32 | 57.77786 | 4.99669 | 34680 ft | 450 kts | 7° |
| 2026-05-06 14:32 | 57.80873 | 5.00423 | 35182 ft | 444 kts | 7° |
| 2026-05-06 14:33 | 57.83926 | 5.01173 | 35529 ft | 441 kts | 7° |
| 2026-05-06 14:33 | 57.86963 | 5.01921 | 35809 ft | 440 kts | 7° |
| 2026-05-06 14:33 | 57.90001 | 5.02669 | 35973 ft | 440 kts | 7° |
| 2026-05-06 14:33 | 57.93032 | 5.03410 | 36009 ft | 440 kts | 7° |
| 2026-05-06 14:34 | 57.99074 | 5.04894 | 36003 ft | 443 kts | 10° |
| 2026-05-06 14:34 | 58.05207 | 5.06401 | 36011 ft | 448 kts | 7° |
| 2026-05-06 14:35 | 58.11446 | 5.07933 | 36008 ft | 453 kts | 7° |
| 2026-05-06 14:35 | 58.17666 | 5.09478 | 36009 ft | 454 kts | 7° |
| 2026-05-06 14:36 | 58.23924 | 5.11043 | 36011 ft | 454 kts | 7° |
| 2026-05-06 14:36 | 58.30192 | 5.12607 | 36009 ft | 454 kts | 7° |
| 2026-05-06 14:37 | 58.36455 | 5.14177 | 36010 ft | 454 kts | 7° |
| 2026-05-06 14:37 | 58.42721 | 5.15758 | 36011 ft | 454 kts | 7° |
| 2026-05-06 14:38 | 58.48991 | 5.17330 | 36012 ft | 454 kts | 7° |
| 2026-05-06 14:38 | 58.55258 | 5.18918 | 36014 ft | 454 kts | 7° |
| 2026-05-06 14:39 | 58.61494 | 5.20502 | 36015 ft | 454 kts | 7° |
| 2026-05-06 14:39 | 58.67762 | 5.22109 | 36016 ft | 454 kts | 7° |
| 2026-05-06 14:40 | 58.74039 | 5.23705 | 36017 ft | 455 kts | 7° |
| 2026-05-06 14:40 | 58.80319 | 5.25320 | 36020 ft | 455 kts | 7° |
| 2026-05-06 14:41 | 58.86600 | 5.26951 | 36021 ft | 455 kts | 7° |
| 2026-05-06 14:41 | 58.92834 | 5.28565 | 36021 ft | 455 kts | 7° |
| 2026-05-06 14:42 | 58.99107 | 5.30193 | 36021 ft | 455 kts | 7° |
| 2026-05-06 14:42 | 59.05382 | 5.31826 | 36019 ft | 454 kts | 7° |
| 2026-05-06 14:43 | 59.11655 | 5.33476 | 36018 ft | 454 kts | 7° |
| 2026-05-06 14:43 | 59.17924 | 5.35133 | 36018 ft | 454 kts | 7° |
| 2026-05-06 14:44 | 59.24197 | 5.36783 | 36019 ft | 455 kts | 7° |
| 2026-05-06 14:45 | 59.33608 | 5.39256 | 36021 ft | 455 kts | 7° |
| 2026-05-06 14:45 | 59.39881 | 5.40928 | 36020 ft | 455 kts | 7° |
| 2026-05-06 14:46 | 59.46125 | 5.42590 | 36016 ft | 455 kts | 7° |
| 2026-05-06 14:46 | 59.52397 | 5.44273 | 36014 ft | 455 kts | 7° |
| 2026-05-06 14:47 | 59.58673 | 5.45972 | 36018 ft | 455 kts | 7° |
| 2026-05-06 14:47 | 59.64951 | 5.47674 | 36020 ft | 455 kts | 7° |
| 2026-05-06 14:48 | 59.71231 | 5.49382 | 36019 ft | 455 kts | 7° |
| 2026-05-06 14:48 | 59.77470 | 5.51076 | 36021 ft | 455 kts | 7° |
| 2026-05-06 14:49 | 59.83743 | 5.52787 | 36021 ft | 455 kts | 7° |
| 2026-05-06 14:49 | 59.90015 | 5.54509 | 36020 ft | 455 kts | 7° |
| 2026-05-06 14:50 | 59.96292 | 5.56242 | 35831 ft | 453 kts | 7° |
| 2026-05-06 14:50 | 59.99423 | 5.57102 | 35148 ft | 455 kts | 7° |
| 2026-05-06 14:50 | 60.02576 | 5.57966 | 34408 ft | 457 kts | 7° |
| 2026-05-06 14:50 | 60.05728 | 5.58837 | 33702 ft | 458 kts | 7° |
| 2026-05-06 14:51 | 60.08886 | 5.59720 | 33019 ft | 458 kts | 7° |
| 2026-05-06 14:51 | 60.12045 | 5.60607 | 32408 ft | 457 kts | 7° |
| 2026-05-06 14:51 | 60.15158 | 5.61480 | 32162 ft | 458 kts | 7° |
| 2026-05-06 14:51 | 60.18328 | 5.62366 | 31912 ft | 462 kts | 7° |
| 2026-05-06 14:52 | 60.21512 | 5.63253 | 31649 ft | 463 kts | 7° |
| 2026-05-06 14:52 | 60.24702 | 5.64140 | 31411 ft | 463 kts | 7° |
| 2026-05-06 14:52 | 60.27895 | 5.65029 | 31161 ft | 463 kts | 7° |
| 2026-05-06 14:52 | 60.31090 | 5.65927 | 30897 ft | 463 kts | 7° |
| 2026-05-06 14:53 | 60.34284 | 5.66837 | 30644 ft | 465 kts | 7° |
| 2026-05-06 14:53 | 60.37486 | 5.67751 | 30400 ft | 465 kts | 7° |
| 2026-05-06 14:53 | 60.40695 | 5.68665 | 30142 ft | 466 kts | 7° |
| 2026-05-06 14:53 | 60.43910 | 5.69575 | 29892 ft | 468 kts | 7° |
| 2026-05-06 14:54 | 60.47143 | 5.70491 | 29641 ft | 468 kts | 7° |
| 2026-05-06 14:54 | 60.50362 | 5.71412 | 29391 ft | 467 kts | 7° |
| 2026-05-06 14:54 | 60.53583 | 5.72337 | 29141 ft | 467 kts | 7° |
| 2026-05-06 14:54 | 60.56801 | 5.73261 | 28891 ft | 468 kts | 7° |
| 2026-05-06 14:55 | 60.60032 | 5.74185 | 28643 ft | 470 kts | 7° |
| 2026-05-06 14:55 | 60.63283 | 5.75112 | 28389 ft | 472 kts | 7° |
| 2026-05-06 14:55 | 60.66535 | 5.76040 | 28135 ft | 472 kts | 7° |
| 2026-05-06 14:55 | 60.69778 | 5.76971 | 27888 ft | 471 kts | 7° |
| 2026-05-06 14:56 | 60.73022 | 5.77912 | 27635 ft | 471 kts | 7° |
| 2026-05-06 14:56 | 60.76234 | 5.78846 | 27388 ft | 473 kts | 7° |
| 2026-05-06 14:56 | 60.79510 | 5.79794 | 27138 ft | 476 kts | 7° |
| 2026-05-06 14:56 | 60.82782 | 5.80744 | 26888 ft | 474 kts | 7° |
| 2026-05-06 14:57 | 60.86056 | 5.81700 | 26637 ft | 476 kts | 7° |
| 2026-05-06 14:57 | 60.89352 | 5.82663 | 26387 ft | 478 kts | 7° |
| 2026-05-06 14:57 | 60.92654 | 5.83629 | 26135 ft | 478 kts | 7° |
| 2026-05-06 14:57 | 60.95960 | 5.84597 | 25884 ft | 480 kts | 7° |
| 2026-05-06 14:58 | 60.99192 | 5.85152 | 25629 ft | 479 kts | 2° |
| 2026-05-06 14:58 | 61.02558 | 5.85488 | 25370 ft | 478 kts | 2° |
| 2026-05-06 14:58 | 61.05889 | 5.85810 | 25133 ft | 479 kts | 2° |
| 2026-05-06 14:58 | 61.09217 | 5.86131 | 24880 ft | 479 kts | 2° |
| 2026-05-06 14:59 | 61.12544 | 5.86455 | 24625 ft | 478 kts | 2° |
| 2026-05-06 14:59 | 61.15863 | 5.86780 | 24379 ft | 477 kts | 2° |
| 2026-05-06 14:59 | 61.19135 | 5.87108 | 24131 ft | 479 kts | 2° |
| 2026-05-06 14:59 | 61.22515 | 5.87453 | 23877 ft | 480 kts | 2° |
| 2026-05-06 15:00 | 61.25847 | 5.87795 | 23627 ft | 479 kts | 2° |
| 2026-05-06 15:00 | 61.29126 | 5.88126 | 23379 ft | 478 kts | 2° |
| 2026-05-06 15:00 | 61.32442 | 5.88456 | 23128 ft | 476 kts | 2° |
| 2026-05-06 15:00 | 61.35743 | 5.88780 | 22874 ft | 473 kts | 2° |
| 2026-05-06 15:01 | 61.39044 | 5.89105 | 22621 ft | 472 kts | 2° |
| 2026-05-06 15:01 | 61.42312 | 5.89435 | 22370 ft | 470 kts | 2° |
| 2026-05-06 15:01 | 61.45565 | 5.89771 | 22121 ft | 466 kts | 2° |
| 2026-05-06 15:01 | 61.48803 | 5.90107 | 21869 ft | 465 kts | 2° |
| 2026-05-06 15:02 | 61.50950 | 5.90331 | 21703 ft | 466 kts | 2° |
| 2026-05-06 15:02 | 61.55241 | 5.90773 | 21370 ft | 465 kts | 2° |
| 2026-05-06 15:02 | 61.58462 | 5.91101 | 21121 ft | 461 kts | 2° |
| 2026-05-06 15:02 | 61.61662 | 5.91427 | 20869 ft | 460 kts | 2° |
| 2026-05-06 15:03 | 61.64862 | 5.91754 | 20619 ft | 459 kts | 2° |
| 2026-05-06 15:03 | 61.67016 | 5.91977 | 20451 ft | 457 kts | 2° |
| 2026-05-06 15:03 | 61.70130 | 5.92420 | 20200 ft | 454 kts | 6° |
| 2026-05-06 15:03 | 61.73219 | 5.93727 | 19950 ft | 453 kts | 15° |
| 2026-05-06 15:04 | 61.76177 | 5.95974 | 19556 ft | 449 kts | 23° |
| 2026-05-06 15:04 | 61.79017 | 5.98680 | 18832 ft | 445 kts | 24° |
| 2026-05-06 15:04 | 61.81819 | 6.01385 | 18147 ft | 441 kts | 24° |
| 2026-05-06 15:04 | 61.84589 | 6.04076 | 17481 ft | 436 kts | 24° |
| 2026-05-06 15:05 | 61.87330 | 6.06742 | 16839 ft | 430 kts | 24° |
| 2026-05-06 15:05 | 61.90044 | 6.09376 | 16210 ft | 425 kts | 24° |
| 2026-05-06 15:05 | 61.92723 | 6.11974 | 15610 ft | 420 kts | 24° |
| 2026-05-06 15:05 | 61.95362 | 6.14537 | 15021 ft | 414 kts | 24° |
| 2026-05-06 15:06 | 61.97968 | 6.17070 | 14452 ft | 408 kts | 24° |
| 2026-05-06 15:06 | 62.00493 | 6.19528 | 13924 ft | 402 kts | 24° |
| 2026-05-06 15:06 | 62.03018 | 6.21990 | 13387 ft | 396 kts | 24° |
| 2026-05-06 15:06 | 62.05508 | 6.24420 | 12871 ft | 391 kts | 24° |
| 2026-05-06 15:07 | 62.07969 | 6.26824 | 12356 ft | 386 kts | 24° |
| 2026-05-06 15:07 | 62.10390 | 6.29199 | 11843 ft | 382 kts | 24° |
| 2026-05-06 15:07 | 62.12315 | 6.31094 | 11445 ft | 379 kts | 24° |
| 2026-05-06 15:07 | 62.13643 | 6.32403 | 11344 ft | 371 kts | 24° |
| 2026-05-06 15:08 | 62.15939 | 6.34675 | 11222 ft | 357 kts | 24° |
| 2026-05-06 15:08 | 62.18155 | 6.36868 | 11092 ft | 343 kts | 24° |
| 2026-05-06 15:08 | 62.20277 | 6.38964 | 10963 ft | 330 kts | 24° |
| 2026-05-06 15:08 | 62.22317 | 6.40977 | 10837 ft | 318 kts | 24° |
| 2026-05-06 15:09 | 62.24298 | 6.42935 | 10716 ft | 307 kts | 24° |
| 2026-05-06 15:09 | 62.26215 | 6.44837 | 10509 ft | 300 kts | 24° |
| 2026-05-06 15:09 | 62.28093 | 6.46701 | 10258 ft | 294 kts | 24° |
| 2026-05-06 15:09 | 62.29941 | 6.48539 | 10014 ft | 293 kts | 24° |
| 2026-05-06 15:10 | 62.31796 | 6.50388 | 9850 ft | 293 kts | 24° |
| 2026-05-06 15:10 | 62.33641 | 6.52231 | 9727 ft | 292 kts | 24° |
| 2026-05-06 15:10 | 62.35485 | 6.54067 | 9600 ft | 291 kts | 24° |
| 2026-05-06 15:10 | 62.37339 | 6.55851 | 9269 ft | 292 kts | 23° |
| 2026-05-06 15:11 | 62.39201 | 6.57606 | 8852 ft | 291 kts | 22° |
| 2026-05-06 15:11 | 62.41053 | 6.59342 | 8483 ft | 290 kts | 22° |
| 2026-05-06 15:11 | 62.42905 | 6.61079 | 8080 ft | 289 kts | 22° |
| 2026-05-06 15:11 | 62.44709 | 6.62778 | 7705 ft | 287 kts | 22° |
| 2026-05-06 15:12 | 62.46525 | 6.64582 | 7358 ft | 285 kts | 25° |
| 2026-05-06 15:12 | 62.48288 | 6.66469 | 6870 ft | 282 kts | 26° |
| 2026-05-06 15:12 | 62.50106 | 6.68132 | 6233 ft | 280 kts | 11° |
| 2026-05-06 15:12 | 62.51994 | 6.68299 | 5723 ft | 272 kts | 349° |
| 2026-05-06 15:13 | 62.53755 | 6.66906 | 5033 ft | 271 kts | 325° |
| 2026-05-06 15:13 | 62.55212 | 6.64470 | 4549 ft | 257 kts | 320° |
| 2026-05-06 15:13 | 62.56581 | 6.62113 | 4141 ft | 244 kts | 321° |
| 2026-05-06 15:13 | 62.57857 | 6.59931 | 4089 ft | 229 kts | 321° |
| 2026-05-06 15:14 | 62.59117 | 6.57782 | 4001 ft | 230 kts | 321° |
| 2026-05-06 15:14 | 62.60379 | 6.55622 | 3917 ft | 232 kts | 320° |
| 2026-05-06 15:14 | 62.61641 | 6.53439 | 3776 ft | 232 kts | 317° |
| 2026-05-06 15:14 | 62.62621 | 6.50739 | 3540 ft | 227 kts | 297° |
| 2026-05-06 15:15 | 62.63111 | 6.47504 | 3368 ft | 226 kts | 277° |
| 2026-05-06 15:15 | 62.63070 | 6.44117 | 3132 ft | 225 kts | 258° |
| 2026-05-06 15:15 | 62.62524 | 6.40948 | 2851 ft | 222 kts | 245° |
| 2026-05-06 15:15 | 62.61873 | 6.37940 | 2566 ft | 217 kts | 245° |
| 2026-05-06 15:16 | 62.61241 | 6.35007 | 2307 ft | 210 kts | 245° |
| 2026-05-06 15:16 | 62.60647 | 6.32261 | 2011 ft | 193 kts | 245° |
| 2026-05-06 15:16 | 62.60093 | 6.29692 | 1794 ft | 182 kts | 245° |
| 2026-05-06 15:16 | 62.59603 | 6.27390 | 1673 ft | 158 kts | 246° |
| 2026-05-06 15:17 | 62.59153 | 6.25313 | 1367 ft | 148 kts | 245° |
| 2026-05-06 15:17 | 62.58709 | 6.23320 | 1118 ft | 144 kts | 244° |
| 2026-05-06 15:17 | 62.58271 | 6.21376 | 992 ft | 143 kts | 245° |
| 2026-05-06 15:17 | 62.57842 | 6.19465 | 811 ft | 143 kts | 246° |
| 2026-05-06 15:18 | 62.57442 | 6.17494 | 676 ft | 143 kts | 245° |
| 2026-05-06 15:18 | 62.57013 | 6.15541 | 397 ft | 143 kts | 245° |
| 2026-05-06 15:18 | 62.56586 | 6.13585 | 181 ft | 140 kts | 245° |
| 2026-05-06 15:18 | 62.56192 | 6.11715 | 91 ft | 127 kts | 245° |
| 2026-05-06 15:19 | 62.55787 | 6.09919 | 388 ft | 142 kts | 243° |
| 2026-05-06 15:19 | 62.55309 | 6.07976 | 1113 ft | 147 kts | 243° |
| 2026-05-06 15:19 | 62.55324 | 6.05726 | 1588 ft | 167 kts | 301° |
| 2026-05-06 15:19 | 62.56344 | 6.04391 | 1806 ft | 189 kts | 356° |
| 2026-05-06 15:20 | 62.57622 | 6.05329 | 2008 ft | 210 kts | 36° |
| 2026-05-06 15:20 | 62.58837 | 6.07524 | 1775 ft | 239 kts | 39° |
| 2026-05-06 15:20 | 62.59763 | 6.10225 | 1933 ft | 212 kts | 69° |
| 2026-05-06 15:20 | 62.60144 | 6.13456 | 1826 ft | 237 kts | 78° |
| 2026-05-06 15:21 | 62.60408 | 6.17021 | 1988 ft | 240 kts | 81° |
| 2026-05-06 15:21 | 62.60666 | 6.20655 | 2139 ft | 241 kts | 81° |
| 2026-05-06 15:21 | 62.60894 | 6.24113 | 1940 ft | 232 kts | 85° |
| 2026-05-06 15:21 | 62.60473 | 6.27382 | 1498 ft | 214 kts | 136° |
| 2026-05-06 15:22 | 62.59265 | 6.28280 | 1436 ft | 178 kts | 202° |
| 2026-05-06 15:22 | 62.58575 | 6.26439 | 1259 ft | 156 kts | 264° |
| 2026-05-06 15:22 | 62.58496 | 6.24009 | 957 ft | 177 kts | 263° |
| 2026-05-06 15:22 | 62.58231 | 6.21591 | 784 ft | 150 kts | 250° |
| 2026-05-06 15:23 | 62.57823 | 6.19556 | 642 ft | 150 kts | 238° |
| 2026-05-06 15:23 | 62.57377 | 6.17629 | 545 ft | 140 kts | 251° |
| 2026-05-06 15:23 | 62.57042 | 6.15673 | 459 ft | 132 kts | 244° |
| 2026-05-06 15:23 | 62.56674 | 6.13858 | 172 ft | 139 kts | 239° |
| 2026-05-06 15:24 | 62.56247 | 6.11993 | 83 ft | 132 kts | 244° |
| 2026-05-06 15:24 | 62.55963 | 6.10686 | 71 ft | 28 kts | 245° |
| 2026-05-06 15:24 | 62.55940 | 6.10501 | 61 ft | 10 kts | 4° |
| 2026-05-06 15:24 | 62.55958 | 6.10666 | 69 ft | 10 kts | 107° |
| 2026-05-06 15:25 | 62.55939 | 6.10773 | 68 ft | 9 kts | 108° |
| 2026-05-06 15:25 | 62.55913 | 6.10980 | 83 ft | 17 kts | 104° |
| 2026-05-06 15:25 | 62.55902 | 6.11110 | 83 ft | 7 kts | 91° |
| 2026-05-06 15:25 | 62.55916 | 6.11209 | 82 ft | 9 kts | 66° |
| 2026-05-06 15:26 | 62.55906 | 6.11271 | 82 ft | 4 kts | 142° |
| 2026-05-06 15:26 | 62.55879 | 6.11300 | 83 ft | 2 kts | 154° |
| 2026-05-06 15:26 | 62.55874 | 6.11306 | 82 ft | 1 kts | 154° |
| 2026-05-06 15:26 | 62.55873 | 6.11307 | 82 ft | 0 kts | 154° |